Time;durP1;ratioP1;P1;durP2;ratioP2;P2;SDS_P1;SDS_P2;PMS_P1;PMS_P2;Temp;Humidity;BMP_temperature;BMP_pressure;BME280_temperature;BME280_humidity;BME280_pressure;Samples;Min_cycle;Max_cycle;Signal;HPM_P1;HPM_P2
2022/04/09 00:02:12;;;;;;;11.40;4.67;;;6.50;64.30;;;;;;5075161;28;20161;-88
2022/04/09 00:04:40;;;;;;;14.00;4.53;;;6.50;63.70;;;;;;5075584;28;20196;-86
2022/04/09 00:07:06;;;;;;;8.47;3.83;;;6.40;64.20;;;;;;5076834;28;20191;-86
2022/04/09 00:09:32;;;;;;;11.87;4.93;;;6.40;66.20;;;;;;5058152;28;20173;-83
2022/04/09 00:11:57;;;;;;;9.40;4.23;;;6.30;67.00;;;;;;5078910;28;20184;-84
2022/04/09 00:14:24;;;;;;;12.50;4.30;;;6.40;67.00;;;;;;5077372;28;20203;-86
2022/04/09 00:16:50;;;;;;;9.17;4.40;;;6.50;67.30;;;;;;5078440;28;20165;-87
2022/04/09 00:19:16;;;;;;;11.10;4.27;;;6.30;68.30;;;;;;5077987;28;20172;-86
2022/04/09 00:21:41;;;;;;;11.17;3.83;;;6.20;69.00;;;;;;5062057;28;20690;-78
2022/04/09 00:24:08;;;;;;;12.30;4.50;;;6.20;72.10;;;;;;5082160;28;20191;-79
2022/04/09 00:26:33;;;;;;;13.47;4.13;;;6.20;73.00;;;;;;5087492;28;20172;-80
2022/04/09 00:29:01;;;;;;;9.87;3.80;;;6.20;71.50;;;;;;5088422;28;20287;-84
2022/04/09 00:31:29;;;;;;;13.90;3.80;;;6.20;71.00;;;;;;5078376;28;20205;-79
2022/04/09 00:33:57;;;;;;;8.87;3.87;;;6.20;68.40;;;;;;5093280;28;20157;-86
2022/04/09 00:36:42;;;;;;;12.60;3.77;;;6.20;68.00;;;;;;5082519;28;20249;-85
2022/04/09 00:39:11;;;;;;;9.10;3.93;;;6.20;67.90;;;;;;5081944;28;20184;-86
2022/04/09 00:41:40;;;;;;;11.17;3.57;;;6.20;71.50;;;;;;5078535;28;20581;-84
2022/04/09 00:44:19;;;;;;;11.57;3.90;;;6.10;70.40;;;;;;5078788;28;20168;-87
2022/04/09 00:46:49;;;;;;;10.33;3.87;;;5.90;71.60;;;;;;5080394;28;20210;-89
2022/04/09 00:49:16;;;;;;;8.17;3.17;;;5.90;73.60;;;;;;5080705;28;20164;-80
2022/04/09 00:51:43;;;;;;;8.60;2.90;;;6.00;74.00;;;;;;5086774;28;20184;-77
2022/04/09 00:57:45;;;;;;;11.87;3.83;;;5.80;75.40;;;;;;5080454;28;20588;-87
2022/04/09 01:00:11;;;;;;;9.17;3.67;;;5.80;78.40;;;;;;5080126;28;20171;-88
2022/04/09 01:02:43;;;;;;;16.30;3.80;;;6.00;75.10;;;;;;5063196;28;20681;-89
2022/04/09 01:05:10;;;;;;;10.83;3.30;;;5.90;75.80;;;;;;5086250;28;20239;-84
2022/04/09 01:07:36;;;;;;;12.03;3.43;;;6.00;79.40;;;;;;5091584;28;20148;-80
2022/04/09 01:10:05;;;;;;;7.63;3.30;;;6.00;78.50;;;;;;5097048;28;20176;-83
2022/04/09 01:12:34;;;;;;;9.50;3.20;;;6.00;78.70;;;;;;5080180;28;20172;-89
2022/04/09 01:15:06;;;;;;;7.60;3.00;;;5.80;79.20;;;;;;5084856;28;20188;-89
2022/04/09 01:17:34;;;;;;;11.73;3.73;;;6.00;79.30;;;;;;5079242;28;20152;-79
2022/04/09 01:20:17;;;;;;;13.20;3.07;;;6.20;78.40;;;;;;5086696;28;20172;-80
2022/04/09 01:22:43;;;;;;;7.23;3.13;;;6.00;78.80;;;;;;5079923;28;20176;-79
2022/04/09 01:25:09;;;;;;;8.27;2.97;;;6.00;80.30;;;;;;5081070;28;20208;-86
2022/04/09 01:27:35;;;;;;;10.27;2.97;;;5.80;79.80;;;;;;5090248;28;20232;-80
2022/04/09 01:30:01;;;;;;;9.27;2.83;;;5.90;80.90;;;;;;5077172;28;20208;-80
2022/04/09 01:32:29;;;;;;;9.50;3.43;;;6.10;78.50;;;;;;5068962;28;20180;-88
2022/04/09 01:35:11;;;;;;;9.53;3.17;;;6.10;74.30;;;;;;5060498;28;20165;-85
2022/04/09 01:37:39;;;;;;;12.00;3.40;;;6.00;76.30;;;;;;5059833;28;20161;-89
2022/04/09 01:40:11;;;;;;;9.73;2.90;;;5.90;76.90;;;;;;5048617;28;20197;-80
2022/04/09 01:42:43;;;;;;;11.73;3.30;;;5.90;79.00;;;;;;5081149;28;20187;-79
2022/04/09 01:45:19;;;;;;;15.33;3.50;;;5.90;79.80;;;;;;5076327;28;20189;-77
2022/04/09 01:47:47;;;;;;;11.87;3.00;;;5.90;78.60;;;;;;5061769;28;20157;-79
2022/04/09 01:50:18;;;;;;;7.63;2.60;;;5.80;80.50;;;;;;5063023;28;20189;-84
2022/04/09 01:52:56;;;;;;;7.20;2.63;;;5.90;79.50;;;;;;5069866;28;20185;-77
2022/04/09 01:55:22;;;;;;;11.93;3.53;;;5.70;78.10;;;;;;5063487;28;20656;-77
2022/04/09 01:57:48;;;;;;;10.70;3.00;;;5.90;77.30;;;;;;5043677;28;20208;-81
2022/04/09 02:00:15;;;;;;;10.43;3.13;;;5.90;79.00;;;;;;5079868;28;20185;-88
2022/04/09 02:02:41;;;;;;;16.30;3.30;;;6.10;76.10;;;;;;5086574;28;20164;-88
2022/04/09 02:05:11;;;;;;;10.63;3.57;;;6.20;72.80;;;;;;5086218;28;20208;-87
2022/04/09 02:07:41;;;;;;;9.00;3.13;;;6.20;71.80;;;;;;5080016;28;20195;-83
2022/04/09 02:10:09;;;;;;;10.60;4.03;;;6.20;71.50;;;;;;5078339;28;20179;-81
2022/04/09 02:12:36;;;;;;;10.37;3.03;;;6.10;69.50;;;;;;5077656;28;20160;-87
2022/04/09 02:15:03;;;;;;;9.27;3.17;;;6.00;73.10;;;;;;5077679;28;20192;-83
2022/04/09 02:17:29;;;;;;;10.40;3.30;;;5.80;74.90;;;;;;5078692;28;20157;-89
2022/04/09 02:19:55;;;;;;;11.07;3.90;;;5.60;77.20;;;;;;5079229;28;20169;-83
2022/04/09 02:22:20;;;;;;;8.50;2.80;;;5.60;79.70;;;;;;5081863;28;20168;-77
2022/04/09 02:24:49;;;;;;;9.80;3.13;;;5.60;81.30;;;;;;5087236;28;20230;-79
2022/04/09 02:27:15;;;;;;;10.20;3.47;;;5.60;80.40;;;;;;5067132;28;20187;-81
2022/04/09 02:29:41;;;;;;;10.13;3.50;;;5.50;81.90;;;;;;5072355;28;20180;-81
2022/04/09 02:32:08;;;;;;;8.57;3.77;;;5.40;82.80;;;;;;5094718;28;20160;-83
2022/04/09 02:34:33;;;;;;;13.23;3.37;;;5.50;84.30;;;;;;5074498;28;20202;-75
2022/04/09 02:37:05;;;;;;;8.23;3.47;;;5.60;83.10;;;;;;5092557;28;20629;-79
2022/04/09 02:39:47;;;;;;;9.73;3.33;;;5.70;80.40;;;;;;5089197;28;20194;-79
2022/04/09 02:42:13;;;;;;;16.70;4.33;;;5.70;76.60;;;;;;5090542;28;20164;-80
2022/04/09 02:44:43;;;;;;;9.37;3.43;;;5.50;78.10;;;;;;5090444;28;20287;-77
2022/04/09 02:47:14;;;;;;;12.53;3.37;;;5.50;79.80;;;;;;5086434;28;20191;-88
2022/04/09 02:49:43;;;;;;;12.87;3.83;;;5.60;79.80;;;;;;5087330;28;20161;-81
2022/04/09 02:52:09;;;;;;;9.90;3.57;;;5.30;77.40;;;;;;5091017;28;20160;-78
2022/04/09 02:54:37;;;;;;;6.63;3.23;;;5.60;76.80;;;;;;5090103;28;20194;-80
2022/04/09 02:57:09;;;;;;;10.47;3.50;;;5.70;76.70;;;;;;5088437;28;20517;-86
2022/04/09 02:59:41;;;;;;;8.57;3.73;;;5.60;75.20;;;;;;5049725;28;20196;-80
2022/04/09 03:02:10;;;;;;;16.17;3.67;;;5.50;77.90;;;;;;5061591;28;20180;-80
2022/04/09 03:04:36;;;;;;;9.60;4.00;;;5.60;78.40;;;;;;5060359;28;20200;-87
2022/04/09 03:07:03;;;;;;;10.17;4.07;;;5.50;77.70;;;;;;5056753;28;20183;-78
2022/04/09 03:09:28;;;;;;;13.53;4.73;;;5.50;77.00;;;;;;5063372;28;20173;-82
2022/04/09 03:11:54;;;;;;;10.83;3.80;;;5.40;76.60;;;;;;5061843;28;20199;-86
2022/04/09 03:14:20;;;;;;;13.93;4.33;;;5.40;77.80;;;;;;5056396;28;20272;-81
2022/04/09 03:16:45;;;;;;;12.57;4.27;;;5.30;78.70;;;;;;5056552;28;20204;-84
2022/04/09 03:19:11;;;;;;;15.40;3.90;;;5.20;80.10;;;;;;5055948;28;20175;-82
2022/04/09 03:21:37;;;;;;;10.37;3.80;;;5.20;81.20;;;;;;5057868;28;20185;-87
2022/04/09 03:24:03;;;;;;;13.93;3.97;;;5.20;81.50;;;;;;5071103;28;20177;-86
2022/04/09 03:26:29;;;;;;;11.27;4.27;;;5.20;81.40;;;;;;5078272;28;20177;-76
2022/04/09 03:29:01;;;;;;;10.73;3.93;;;5.20;81.40;;;;;;5073269;28;20192;-77
2022/04/09 03:31:26;;;;;;;9.30;3.60;;;5.20;82.10;;;;;;5057073;28;20165;-86
2022/04/09 03:33:53;;;;;;;8.17;3.73;;;5.10;82.10;;;;;;5056101;28;20165;-86
2022/04/09 03:36:19;;;;;;;12.60;4.10;;;5.10;84.00;;;;;;5039111;28;20173;-87
2022/04/09 03:38:44;;;;;;;9.83;3.70;;;5.10;82.70;;;;;;5055608;28;20200;-77
2022/04/09 03:41:10;;;;;;;9.83;4.13;;;5.00;82.00;;;;;;5068580;28;20177;-85
2022/04/09 03:43:39;;;;;;;10.67;4.10;;;4.90;84.10;;;;;;5041420;28;20536;-83
2022/04/09 03:46:05;;;;;;;14.00;4.37;;;5.00;84.40;;;;;;5062991;28;20192;-78
2022/04/09 03:48:31;;;;;;;12.73;3.93;;;4.90;85.10;;;;;;5053702;28;20165;-77
2022/04/09 03:50:56;;;;;;;10.93;3.90;;;4.80;86.10;;;;;;5074848;28;20161;-78
2022/04/09 03:53:35;;;;;;;11.97;4.57;;;4.80;85.20;;;;;;5069465;28;20212;-77
2022/04/09 03:56:04;;;;;;;8.87;5.10;;;4.70;85.90;;;;;;5063103;28;20173;-87
2022/04/09 03:58:37;;;;;;;9.67;4.40;;;4.70;87.00;;;;;;5061822;28;20537;-79
2022/04/09 04:01:03;;;;;;;11.60;4.60;;;4.60;87.70;;;;;;5077135;28;20173;-78
2022/04/09 04:03:29;;;;;;;11.67;4.80;;;4.50;89.50;;;;;;5077454;28;20169;-86
2022/04/09 04:05:55;;;;;;;13.70;5.80;;;4.50;89.80;;;;;;5077541;28;20668;-85
2022/04/09 04:08:21;;;;;;;11.77;4.30;;;4.50;90.10;;;;;;5066655;28;20187;-83
2022/04/09 04:10:47;;;;;;;13.50;4.33;;;4.50;88.90;;;;;;5082001;28;20216;-83
2022/04/09 04:13:13;;;;;;;16.07;4.80;;;4.50;90.00;;;;;;5074806;28;20172;-87
2022/04/09 04:15:42;;;;;;;12.13;4.47;;;4.40;90.40;;;;;;5077359;28;20165;-88
2022/04/09 04:18:08;;;;;;;11.93;4.23;;;4.50;90.50;;;;;;5075585;28;20535;-81
2022/04/09 04:20:34;;;;;;;10.07;4.30;;;4.60;90.10;;;;;;5075224;28;20251;-78
2022/04/09 04:23:01;;;;;;;14.33;4.53;;;4.60;87.50;;;;;;5074106;28;20196;-88
2022/04/09 04:25:27;;;;;;;13.03;4.30;;;4.70;86.30;;;;;;5074385;28;20208;-88
2022/04/09 04:27:52;;;;;;;12.43;4.40;;;4.70;85.30;;;;;;5074518;28;20167;-87
2022/04/09 04:30:18;;;;;;;13.30;4.27;;;4.70;84.40;;;;;;5076908;28;20251;-77
2022/04/09 04:32:45;;;;;;;9.93;4.23;;;4.70;84.70;;;;;;5086151;28;20172;-77
2022/04/09 04:35:11;;;;;;;10.23;4.40;;;4.60;86.20;;;;;;5087846;28;20271;-79
2022/04/09 04:37:45;;;;;;;11.27;4.17;;;4.80;87.40;;;;;;5080392;28;20239;-88
2022/04/09 04:40:13;;;;;;;11.90;4.23;;;4.80;86.80;;;;;;5078368;28;20172;-79
2022/04/09 04:42:39;;;;;;;12.63;4.30;;;4.80;86.00;;;;;;5077526;28;20182;-78
2022/04/09 04:45:05;;;;;;;11.63;3.87;;;4.90;86.10;;;;;;5084045;28;20671;-88
2022/04/09 04:47:40;;;;;;;14.83;4.10;;;4.90;83.70;;;;;;5059410;28;20194;-87
2022/04/09 04:50:07;;;;;;;11.70;4.00;;;4.90;83.50;;;;;;5077287;28;20163;-81
2022/04/09 04:52:32;;;;;;;16.03;4.23;;;4.90;83.70;;;;;;5075848;28;20672;-89
2022/04/09 04:54:58;;;;;;;15.87;4.07;;;4.80;83.60;;;;;;5079758;28;20203;-88
2022/04/09 04:57:24;;;;;;;13.20;4.03;;;4.80;83.70;;;;;;5084323;28;20255;-85
2022/04/09 04:59:49;;;;;;;11.47;3.80;;;4.80;84.00;;;;;;5066741;28;20214;-85
2022/04/09 05:02:16;;;;;;;12.97;4.23;;;4.90;83.90;;;;;;5069514;28;20184;-83
2022/04/09 05:04:42;;;;;;;12.53;4.50;;;4.90;83.40;;;;;;5061257;28;20235;-88
2022/04/09 05:07:07;;;;;;;11.07;3.83;;;4.90;83.60;;;;;;5056295;28;20173;-88
2022/04/09 05:09:35;;;;;;;10.97;3.77;;;5.00;82.70;;;;;;5059958;28;20180;-87
2022/04/09 05:12:01;;;;;;;12.57;4.10;;;5.00;81.40;;;;;;5053226;28;20173;-77
2022/04/09 05:14:27;;;;;;;11.93;4.67;;;5.10;81.20;;;;;;5056797;28;20202;-87
2022/04/09 05:16:53;;;;;;;17.47;5.30;;;5.10;79.80;;;;;;5055981;28;20168;-77
2022/04/09 05:22:46;;;;;;;15.73;4.33;;;5.10;78.90;;;;;;5059882;28;20169;-87
2022/04/09 05:25:14;;;;;;;11.43;4.17;;;5.00;77.80;;;;;;5037435;28;20332;-78
2022/04/09 05:27:40;;;;;;;10.33;4.00;;;5.00;79.40;;;;;;5056147;28;20262;-86
2022/04/09 05:30:08;;;;;;;17.57;4.07;;;5.00;79.70;;;;;;5074336;28;20173;-77
2022/04/09 05:32:36;;;;;;;11.07;4.67;;;5.00;81.00;;;;;;5092686;28;20171;-78
2022/04/09 05:35:08;;;;;;;14.90;4.93;;;5.10;80.90;;;;;;5087115;28;20199;-88
2022/04/09 05:37:35;;;;;;;13.23;4.33;;;5.00;81.40;;;;;;5078838;28;20210;-88
2022/04/09 05:40:02;;;;;;;14.60;4.53;;;5.00;80.80;;;;;;5078927;28;20188;-86
2022/04/09 05:42:28;;;;;;;14.50;5.03;;;5.10;81.60;;;;;;5079009;28;20260;-88
2022/04/09 05:44:54;;;;;;;11.30;4.53;;;5.10;81.50;;;;;;5078841;28;20195;-77
2022/04/09 05:47:19;;;;;;;13.93;4.67;;;5.20;77.50;;;;;;5077589;28;20165;-79
2022/04/09 05:49:46;;;;;;;16.33;4.50;;;5.30;77.10;;;;;;5081183;28;20194;-82
2022/04/09 05:52:13;;;;;;;17.40;5.33;;;5.30;76.80;;;;;;5087833;28;20187;-87
2022/04/09 05:54:39;;;;;;;14.73;5.00;;;5.30;76.40;;;;;;5065330;28;20679;-84
2022/04/09 05:57:05;;;;;;;11.47;4.53;;;5.30;76.50;;;;;;5063508;28;20188;-78
2022/04/09 05:59:33;;;;;;;11.10;4.37;;;5.30;76.50;;;;;;5080218;28;20153;-76
2022/04/09 06:01:59;;;;;;;10.37;3.97;;;5.20;76.50;;;;;;5077019;28;20230;-77
2022/04/09 06:04:25;;;;;;;12.60;4.70;;;5.20;77.90;;;;;;5076573;28;20185;-77
2022/04/09 06:07:17;;;;;;;13.43;4.33;;;5.30;78.10;;;;;;5070729;28;20233;-78
2022/04/09 06:10:05;;;;;;;15.37;5.20;;;5.30;76.40;;;;;;5065681;28;20149;-82
2022/04/09 06:12:37;;;;;;;15.67;5.40;;;5.40;74.90;;;;;;5064197;28;20533;-87
2022/04/09 06:15:04;;;;;;;12.43;4.60;;;5.50;74.60;;;;;;5081551;28;20220;-87
2022/04/09 06:17:37;;;;;;;12.10;4.40;;;5.50;73.70;;;;;;5085485;28;20175;-78
2022/04/09 06:20:09;;;;;;;17.90;5.43;;;5.50;72.50;;;;;;5092947;28;20156;-77
2022/04/09 06:22:38;;;;;;;13.77;4.63;;;5.50;73.80;;;;;;5094901;28;20161;-80
2022/04/09 06:25:11;;;;;;;15.57;5.13;;;5.60;73.80;;;;;;5083304;28;20206;-79
2022/04/09 06:27:59;;;;;;;9.90;5.10;;;5.70;71.90;;;;;;5083105;28;20612;-78
2022/04/09 06:30:30;;;;;;;15.73;5.33;;;5.80;67.90;;;;;;5065477;28;20232;-81
2022/04/09 06:32:56;;;;;;;13.97;5.03;;;5.80;66.80;;;;;;5077510;28;20206;-87
2022/04/09 06:35:25;;;;;;;10.70;4.37;;;5.80;66.90;;;;;;5077210;28;20686;-85
2022/04/09 06:37:50;;;;;;;14.73;5.10;;;5.80;67.20;;;;;;5059141;28;20164;-81
2022/04/09 06:40:16;;;;;;;20.00;5.17;;;5.90;65.00;;;;;;5080470;28;20698;-86
2022/04/09 06:42:42;;;;;;;11.40;4.27;;;6.00;63.90;;;;;;5082112;28;20176;-82
2022/04/09 06:45:09;;;;;;;13.83;4.80;;;6.20;63.20;;;;;;5079765;28;20204;-79
2022/04/09 06:47:40;;;;;;;11.70;4.20;;;6.30;60.60;;;;;;5079781;28;20210;-84
2022/04/09 06:50:08;;;;;;;11.97;4.50;;;6.40;55.70;;;;;;5079970;28;20176;-82
2022/04/09 06:52:33;;;;;;;14.80;4.83;;;6.30;57.70;;;;;;5059222;28;20243;-79
2022/04/09 06:54:59;;;;;;;21.80;5.30;;;6.20;58.90;;;;;;5077339;28;20610;-89
2022/04/09 06:57:24;;;;;;;15.03;4.67;;;6.20;61.50;;;;;;5076832;28;20263;-84
2022/04/09 06:59:57;;;;;;;12.90;4.20;;;6.30;61.20;;;;;;5076454;28;20220;-88
2022/04/09 07:02:23;;;;;;;13.00;4.60;;;6.30;60.00;;;;;;5060024;28;20172;-86
2022/04/09 07:04:49;;;;;;;13.60;4.93;;;6.40;60.00;;;;;;5077487;28;20223;-85
2022/04/09 07:07:25;;;;;;;14.07;4.53;;;6.40;59.20;;;;;;5077039;28;20164;-87
2022/04/09 07:10:09;;;;;;;10.07;4.57;;;6.50;58.00;;;;;;5078706;28;20178;-83
2022/04/09 07:12:36;;;;;;;11.50;4.17;;;6.70;56.10;;;;;;5059587;28;20660;-79
2022/04/09 07:15:03;;;;;;;11.60;3.83;;;6.80;53.50;;;;;;5085678;28;20175;-80
2022/04/09 07:17:30;;;;;;;13.10;4.33;;;7.10;50.60;;;;;;5088273;28;20180;-83
2022/04/09 07:20:00;;;;;;;11.20;4.17;;;7.20;47.00;;;;;;5082650;28;20624;-86
2022/04/09 07:22:36;;;;;;;14.80;5.00;;;7.30;44.40;;;;;;5077194;28;20164;-84
2022/04/09 07:25:05;;;;;;;10.47;4.53;;;7.40;43.30;;;;;;5081227;28;20192;-83
2022/04/09 07:27:36;;;;;;;14.10;4.73;;;7.50;41.90;;;;;;5079029;28;20635;-83
2022/04/09 07:30:07;;;;;;;12.50;4.13;;;7.70;37.00;;;;;;5081186;28;20632;-83
2022/04/09 07:32:32;;;;;;;14.00;4.23;;;7.80;28.10;;;;;;5094386;28;20181;-81
2022/04/09 07:34:58;;;;;;;15.37;4.90;;;7.90;24.40;;;;;;5080286;28;20179;-86
2022/04/09 07:37:24;;;;;;;11.43;3.77;;;7.70;25.20;;;;;;5058104;28;20175;-81
2022/04/09 07:39:50;;;;;;;14.90;4.33;;;7.80;26.70;;;;;;5084664;28;20192;-76
2022/04/09 07:42:16;;;;;;;13.80;3.50;;;7.90;23.80;;;;;;5085719;28;20211;-81
2022/04/09 07:44:41;;;;;;;10.20;3.60;;;7.80;25.90;;;;;;5088760;28;20231;-76
2022/04/09 07:47:07;;;;;;;15.00;4.10;;;7.80;25.10;;;;;;5090324;28;20648;-77
2022/04/09 07:49:32;;;;;;;14.57;4.53;;;7.80;29.90;;;;;;5089341;28;20152;-79
2022/04/09 07:51:58;;;;;;;12.83;3.80;;;7.90;28.80;;;;;;5090822;28;20694;-79
2022/04/09 07:54:24;;;;;;;11.70;3.77;;;8.00;28.30;;;;;;5087039;28;20171;-77
2022/04/09 07:56:51;;;;;;;14.77;4.00;;;8.10;23.90;;;;;;5089433;28;20199;-75
2022/04/09 07:59:16;;;;;;;14.03;3.77;;;8.20;20.90;;;;;;5090942;28;20247;-77
2022/04/09 08:01:42;;;;;;;11.50;3.87;;;8.30;19.60;;;;;;5085776;28;20165;-76
2022/04/09 08:04:07;;;;;;;8.07;3.47;;;8.20;16.60;;;;;;5090152;28;20224;-78
2022/04/09 08:06:33;;;;;;;10.43;4.10;;;8.30;20.20;;;;;;5088909;28;20214;-77
2022/04/09 08:08:59;;;;;;;10.97;3.70;;;8.20;18.70;;;;;;5085101;28;20157;-78
2022/04/09 08:11:26;;;;;;;13.30;3.97;;;8.30;21.60;;;;;;5090484;28;20212;-76
2022/04/09 08:13:51;;;;;;;9.73;3.60;;;8.40;19.20;;;;;;5093230;28;20198;-77
2022/04/09 08:16:17;;;;;;;11.10;3.57;;;8.60;12.60;;;;;;5089079;28;20168;-79
2022/04/09 08:18:43;;;;;;;10.30;4.10;;;8.60;14.70;;;;;;5088100;28;20580;-77
2022/04/09 08:21:09;;;;;;;8.23;3.03;;;8.70;13.70;;;;;;5086290;28;20230;-79
2022/04/09 08:23:35;;;;;;;10.23;3.53;;;8.60;7.10;;;;;;5091967;28;20200;-76
2022/04/09 08:26:01;;;;;;;11.10;4.37;;;8.60;17.90;;;;;;5091863;28;20211;-79
2022/04/09 08:28:30;;;;;;;11.00;4.00;;;8.70;18.80;;;;;;5088233;28;20184;-79
2022/04/09 08:31:51;;;;;;;9.47;3.93;;;9.00;14.30;;;;;;5080531;28;20247;-86
2022/04/09 08:34:18;;;;;;;10.30;2.70;;;8.70;5.90;;;;;;5061160;28;20566;-86
2022/04/09 08:36:45;;;;;;;8.60;2.90;;;8.60;3.20;;;;;;5071585;28;20323;-81
2022/04/09 08:39:11;;;;;;;10.03;2.93;;;8.70;3.00;;;;;;5060252;28;20287;-84
2022/04/09 08:41:40;;;;;;;9.40;3.13;;;8.70;1.00;;;;;;5076720;28;20192;-85
2022/04/09 08:44:07;;;;;;;9.10;2.93;;;8.70;1.00;;;;;;5064948;28;20219;-81
2022/04/09 08:46:40;;;;;;;8.43;3.20;;;8.70;1.00;;;;;;5058717;28;20213;-85
2022/04/09 08:49:08;;;;;;;12.23;3.47;;;8.90;1.00;;;;;;5062671;28;20161;-81
2022/04/09 08:51:34;;;;;;;9.57;3.43;;;9.00;1.00;;;;;;5064321;28;20649;-81
2022/04/09 08:54:02;;;;;;;6.67;3.07;;;9.10;1.00;;;;;;5049986;28;20256;-85
2022/04/09 08:56:37;;;;;;;7.87;3.47;;;9.00;1.00;;;;;;5078285;28;20206;-86
2022/04/09 08:59:08;;;;;;;6.83;2.70;;;9.00;1.00;;;;;;5081057;28;20160;-86
2022/04/09 09:01:50;;;;;;;8.13;3.03;;;9.00;1.00;;;;;;5058698;28;20537;-78
2022/04/09 09:04:17;;;;;;;7.97;3.57;;;8.90;1.00;;;;;;5057836;28;20187;-89
2022/04/09 09:06:49;;;;;;;7.73;3.17;;;9.00;1.00;;;;;;5076885;28;20203;-79
2022/04/09 09:09:32;;;;;;;5.03;3.63;;;9.10;1.00;;;;;;5078890;28;20172;-82
2022/04/09 09:12:12;;;;;;;7.33;2.90;;;9.10;1.00;;;;;;5079826;28;20160;-82
2022/04/09 09:14:44;;;;;;;10.70;2.90;;;9.20;1.00;;;;;;5066337;28;20193;-78
2022/04/09 09:17:12;;;;;;;9.43;3.40;;;9.30;1.00;;;;;;5059577;28;20181;-85
2022/04/09 09:19:43;;;;;;;11.03;3.67;;;9.40;1.00;;;;;;5060080;28;20181;-84
2022/04/09 09:22:08;;;;;;;9.30;3.07;;;9.50;1.00;;;;;;5060230;28;20173;-87
2022/04/09 09:24:34;;;;;;;7.23;2.83;;;9.50;1.00;;;;;;5060768;28;20644;-86
2022/04/09 09:27:02;;;;;;;6.40;2.77;;;9.30;1.00;;;;;;5058924;28;20176;-85
2022/04/09 09:29:30;;;;;;;8.93;3.17;;;9.30;1.00;;;;;;5059761;28;20169;-87
2022/04/09 09:31:58;;;;;;;7.37;2.97;;;9.40;1.00;;;;;;5063166;28;20173;-81
2022/04/09 09:34:26;;;;;;;5.90;2.97;;;9.60;1.00;;;;;;5077677;28;20187;-82
2022/04/09 09:36:51;;;;;;;8.33;3.17;;;9.80;1.00;;;;;;5072468;28;20256;-83
2022/04/09 09:39:21;;;;;;;7.67;3.30;;;9.80;1.00;;;;;;5062492;28;20208;-88
2022/04/09 09:41:52;;;;;;;10.07;3.20;;;9.80;1.00;;;;;;5060068;28;20168;-87
2022/04/09 09:44:22;;;;;;;6.27;2.43;;;9.70;1.00;;;;;;5073946;28;20200;-85
2022/04/09 09:46:51;;;;;;;7.47;2.73;;;9.90;1.00;;;;;;5089495;28;20609;-84
2022/04/09 09:49:18;;;;;;;7.03;2.60;;;10.00;1.00;;;;;;5094124;28;20160;-85
2022/04/09 09:52:01;;;;;;;7.80;3.20;;;10.10;1.00;;;;;;5091783;28;20220;-86
2022/04/09 09:54:30;;;;;;;7.40;3.00;;;10.20;1.00;;;;;;5086010;28;20187;-81
2022/04/09 09:56:58;;;;;;;7.30;3.07;;;10.20;1.00;;;;;;5081785;28;20164;-85
2022/04/09 09:59:27;;;;;;;8.57;3.10;;;10.10;1.00;;;;;;5080121;28;20168;-85
2022/04/09 10:01:55;;;;;;;6.33;2.90;;;10.00;1.00;;;;;;5072491;28;20183;-79
2022/04/09 10:04:22;;;;;;;13.40;3.17;;;10.10;1.00;;;;;;5072829;28;20179;-86
2022/04/09 10:06:47;;;;;;;7.37;2.83;;;10.20;1.00;;;;;;5050201;28;20211;-87
2022/04/09 10:09:18;;;;;;;7.30;2.47;;;10.10;1.00;;;;;;5071776;28;20169;-80
2022/04/09 10:11:54;;;;;;;7.50;2.23;;;10.00;1.00;;;;;;5071606;28;20161;-83
2022/04/09 10:14:25;;;;;;;6.53;2.50;;;9.90;1.00;;;;;;5067559;28;20188;-88
2022/04/09 10:16:54;;;;;;;6.47;2.77;;;10.00;1.00;;;;;;5053588;28;20674;-87
2022/04/09 10:19:23;;;;;;;8.20;2.90;;;10.20;1.00;;;;;;5058714;28;20236;-86
2022/04/09 10:21:51;;;;;;;7.60;3.20;;;10.20;1.00;;;;;;5071811;28;20244;-78
2022/04/09 10:24:20;;;;;;;5.90;2.57;;;10.20;1.00;;;;;;5070351;28;20173;-87
2022/04/09 10:26:46;;;;;;;8.37;3.00;;;10.40;1.00;;;;;;5066839;28;20216;-88
2022/04/09 10:29:13;;;;;;;6.13;2.73;;;10.50;1.00;;;;;;5064637;28;20181;-81
2022/04/09 10:31:48;;;;;;;3.67;2.30;;;10.50;1.00;;;;;;5060355;28;20316;-81
2022/04/09 10:34:16;;;;;;;6.07;1.90;;;10.20;1.00;;;;;;5083412;28;20172;-88
2022/04/09 10:36:44;;;;;;;4.97;2.37;;;9.80;1.00;;;;;;5070322;28;20215;-87
2022/04/09 10:39:22;;;;;;;6.23;2.33;;;9.40;1.00;;;;;;5070148;28;20687;-85
2022/04/09 10:41:49;;;;;;;5.77;2.60;;;9.10;1.00;;;;;;5082540;28;20181;-80
2022/04/09 10:44:42;;;;;;;8.70;3.10;;;9.20;1.00;;;;;;5077021;28;20177;-80
2022/04/09 10:47:15;;;;;;;7.67;3.03;;;9.30;1.00;;;;;;5089532;28;20210;-78
2022/04/09 10:50:02;;;;;;;6.33;2.80;;;9.40;1.00;;;;;;5085750;28;20496;-79
2022/04/09 10:52:50;;;;;;;6.47;2.50;;;9.50;1.00;;;;;;5084612;28;20164;-80
2022/04/09 10:56:05;;;;;;;7.30;2.80;;;9.70;1.00;;;;;;5070454;28;20181;-79
2022/04/09 10:59:06;;;;;;;6.63;3.20;;;10.10;1.00;;;;;;5086518;28;20168;-80
2022/04/09 11:01:47;;;;;;;4.03;2.67;;;10.30;1.00;;;;;;5077860;28;20173;-87
2022/04/09 11:07:23;;;;;;;7.50;3.37;;;10.50;1.00;;;;;;5072298;28;20408;-83
2022/04/09 11:10:06;;;;;;;7.60;3.23;;;10.40;1.00;;;;;;5061012;28;20631;-80
2022/04/09 11:12:43;;;;;;;5.33;3.00;;;10.10;1.00;;;;;;5046843;28;20191;-82
2022/04/09 11:15:11;;;;;;;7.73;3.50;;;9.60;1.00;;;;;;5056919;28;20238;-78
2022/04/09 11:17:45;;;;;;;6.10;3.33;;;9.20;1.00;;;;;;5054091;28;20192;-86
2022/04/09 11:20:22;;;;;;;6.73;3.30;;;9.20;1.00;;;;;;5037515;28;20645;-79
2022/04/09 11:22:52;;;;;;;7.13;2.80;;;9.40;1.00;;;;;;5059510;28;20168;-85
2022/04/09 11:25:27;;;;;;;5.67;2.80;;;9.70;1.00;;;;;;5066102;28;20195;-83
2022/04/09 11:28:07;;;;;;;6.47;2.70;;;10.00;1.00;;;;;;5055903;28;20172;-86
2022/04/09 11:30:33;;;;;;;6.50;2.53;;;10.30;1.00;;;;;;5063907;28;21627;-85
2022/04/09 11:32:59;;;;;;;5.00;2.30;;;10.40;1.00;;;;;;5069974;28;20207;-87
2022/04/09 11:35:25;;;;;;;3.80;1.87;;;10.10;1.00;;;;;;5078079;28;20628;-86
2022/04/09 11:37:52;;;;;;;4.60;1.70;;;9.80;1.00;;;;;;5080738;28;20172;-79
2022/04/09 11:40:21;;;;;;;3.20;1.90;;;9.20;1.00;;;;;;5079396;28;20176;-88
2022/04/09 11:42:54;;;;;;;4.80;2.00;;;8.90;1.00;;;;;;5064930;28;20267;-88
2022/04/09 11:45:25;;;;;;;7.90;2.53;;;8.80;1.00;;;;;;5073648;28;20298;-80
2022/04/09 11:47:52;;;;;;;4.83;2.27;;;9.10;1.00;;;;;;5070327;28;20553;-84
2022/04/09 11:50:19;;;;;;;6.07;2.50;;;9.30;1.00;;;;;;5042601;28;20240;-86
2022/04/09 11:52:45;;;;;;;4.27;2.50;;;9.60;1.00;;;;;;5069111;28;20764;-80
2022/04/09 11:55:15;;;;;;;4.37;2.47;;;10.00;1.00;;;;;;5040772;28;20227;-81
2022/04/09 11:57:54;;;;;;;5.43;2.63;;;10.10;1.00;;;;;;5049393;28;20176;-86
2022/04/09 12:00:25;;;;;;;5.63;2.50;;;10.20;1.00;;;;;;5060516;28;20215;-80
2022/04/09 12:02:51;;;;;;;5.07;1.97;;;10.20;1.00;;;;;;5037815;28;20260;-86
2022/04/09 12:05:17;;;;;;;6.27;2.07;;;10.40;1.00;;;;;;5071319;28;20588;-88
2022/04/09 12:07:45;;;;;;;3.97;1.80;;;10.40;1.00;;;;;;5067982;28;20165;-81
2022/04/09 12:10:28;;;;;;;4.30;1.93;;;10.80;99.90;;;;;;5070209;28;20184;-86
2022/04/09 12:12:58;;;;;;;5.13;1.50;;;10.60;1.00;;;;;;5056372;28;20195;-87
2022/04/09 12:15:32;;;;;;;3.90;1.60;;;10.60;99.90;;;;;;5062003;28;20230;-84
2022/04/09 12:18:00;;;;;;;2.77;1.60;;;10.60;1.00;;;;;;5066479;28;20172;-86
2022/04/09 12:20:37;;;;;;;5.80;1.70;;;10.60;12.60;;;;;;5063945;28;20346;-84
2022/04/09 12:23:05;;;;;;;5.47;1.40;;;10.60;51.60;;;;;;5067314;28;20653;-88
2022/04/09 12:25:40;;;;;;;4.33;1.40;;;10.60;1.00;;;;;;5041456;28;20212;-82
2022/04/09 12:28:22;;;;;;;4.37;1.57;;;10.70;1.00;;;;;;5060604;28;20312;-89
2022/04/09 12:30:49;;;;;;;4.03;1.83;;;10.80;1.00;;;;;;5058252;28;20179;-84
2022/04/09 12:33:15;;;;;;;4.10;1.50;;;10.90;1.00;;;;;;5038666;28;20279;-90
2022/04/09 12:35:42;;;;;;;6.03;1.60;;;11.00;1.00;;;;;;5050057;28;20216;-86
2022/04/09 12:38:08;;;;;;;6.07;1.87;;;11.30;1.00;;;;;;5062052;28;20180;-85
2022/04/09 12:40:37;;;;;;;4.97;1.73;;;11.50;99.90;;;;;;5051879;28;20182;-80
2022/04/09 12:43:39;;;;;;;4.67;1.50;;;11.40;1.00;;;;;;5053478;28;20169;-83
2022/04/09 12:46:15;;;;;;;4.93;1.53;;;11.10;1.00;;;;;;5067663;28;20746;-85
2022/04/09 12:48:51;;;;;;;4.63;1.40;;;11.10;1.00;;;;;;5060756;28;20168;-88
2022/04/09 12:51:21;;;;;;;3.73;1.33;;;11.10;29.60;;;;;;5046674;28;20180;-86
2022/04/09 12:53:55;;;;;;;4.23;1.50;;;11.30;99.90;;;;;;5059325;28;20237;-81
2022/04/09 12:56:25;;;;;;;3.30;1.50;;;11.40;50.40;;;;;;5064683;28;20173;-85
2022/04/09 12:58:50;;;;;;;2.87;1.10;;;11.50;1.00;;;;;;5064996;28;20284;-89
2022/04/09 13:01:18;;;;;;;3.00;1.20;;;11.30;99.90;;;;;;5062062;28;20213;-83
2022/04/09 13:03:43;;;;;;;4.77;1.67;;;11.30;10.10;;;;;;5068851;28;20240;-83
2022/04/09 13:06:09;;;;;;;2.23;1.40;;;11.30;1.00;;;;;;5050042;28;20224;-91
2022/04/09 13:08:35;;;;;;;4.10;1.63;;;11.30;1.00;;;;;;5070402;28;20169;-83
2022/04/09 13:11:03;;;;;;;6.17;2.23;;;11.20;1.00;;;;;;5066486;28;20255;-80
2022/04/09 13:13:30;;;;;;;3.70;1.73;;;11.00;1.00;;;;;;5064670;28;20549;-89
2022/04/09 13:15:56;;;;;;;2.60;1.20;;;11.00;99.90;;;;;;5078699;28;20187;-83